Time;durP1;ratioP1;P1;durP2;ratioP2;P2;SDS_P1;SDS_P2;PMS_P1;PMS_P2;Temp;Humidity;BMP_temperature;BMP_pressure;BME280_temperature;BME280_humidity;BME280_pressure;Samples;Min_cycle;Max_cycle;Signal;HPM_P1;HPM_P2
2022/08/25 00:02:12;;;;;;;;;;;;;;;;;;5039779;28;19912;-76
2022/08/25 00:04:37;;;;;;;;;;;;;;;;;;5023054;28;20011;-76
2022/08/25 00:07:03;;;;;;;;;;;;;;;;;;5039412;28;19952;-76
2022/08/25 00:09:39;;;;;;;;;;;;;;;;;;5022863;28;19912;-77
2022/08/25 00:12:04;;;;;;;;;;;;;;;;;;5073818;28;19965;-77
2022/08/25 00:14:30;;;;;;;;;;;;;;;;;;5039304;28;19917;-76
2022/08/25 00:16:56;;;;;;;;;;;;;;;;;;5073718;28;20344;-77
2022/08/25 00:19:21;;;;;;;;;;;;;;;;;;5073426;28;19939;-76
2022/08/25 00:21:47;;;;;;;;;;;;;;;;;;5055715;28;20037;-77
2022/08/25 00:24:12;;;;;;;;;;;;;;;;;;5055571;28;19920;-76
2022/08/25 00:26:38;;;;;;;;;;;;;;;;;;5039323;28;19912;-76
2022/08/25 00:29:04;;;;;;;;;;;;;;;;;;5073835;28;20298;-77
2022/08/25 00:31:29;;;;;;;;;;;;;;;;;;5073243;28;19923;-76
2022/08/25 00:33:55;;;;;;;;;;;;;;;;;;5055761;28;19913;-76
2022/08/25 00:36:20;;;;;;;;;;;;;;;;;;5055533;28;19918;-77
2022/08/25 00:38:46;;;;;;;;;;;;;;;;;;5022323;28;20329;-77
2022/08/25 00:41:11;;;;;;;;;;;;;;;;;;5055903;28;20299;-77
2022/08/25 00:43:37;;;;;;;;;;;;;;;;;;5055120;28;19956;-75
2022/08/25 00:46:02;;;;;;;;;;;;;;;;;;5038704;28;19919;-75
2022/08/25 00:48:28;;;;;;;;;;;;;;;;;;5055442;28;20011;-76
2022/08/25 00:50:53;;;;;;;;;;;;;;;;;;5038518;28;19917;-77
2022/08/25 00:53:18;;;;;;;;;;;;;;;;;;5072729;28;19912;-77
2022/08/25 00:55:44;;;;;;;;;;;;;;;;;;5055012;28;20292;-77
2022/08/25 00:58:12;;;;;;;;;;;;;;;;;;5038112;28;19944;-76
2022/08/25 01:00:38;;;;;;;;;;;;;;;;;;5054828;28;20279;-76
2022/08/25 01:03:03;;;;;;;;;;;;;;;;;;5072477;28;19919;-77
2022/08/25 01:05:29;;;;;;;;;;;;;;;;;;5072788;28;20066;-76
2022/08/25 01:07:55;;;;;;;;;;;;;;;;;;5072523;28;19962;-76
2022/08/25 01:10:20;;;;;;;;;;;;;;;;;;5054999;28;19913;-76
2022/08/25 01:12:46;;;;;;;;;;;;;;;;;;5072325;28;19999;-76
2022/08/25 01:15:11;;;;;;;;;;;;;;;;;;5072417;28;19916;-77
2022/08/25 01:17:37;;;;;;;;;;;;;;;;;;5054795;28;19912;-75
2022/08/25 01:20:02;;;;;;;;;;;;;;;;;;5054574;28;20386;-77
2022/08/25 01:22:28;;;;;;;;;;;;;;;;;;5021780;28;19912;-75
2022/08/25 01:24:55;;;;;;;;;;;;;;;;;;5054558;28;19960;-77
2022/08/25 01:27:21;;;;;;;;;;;;;;;;;;5072195;28;19947;-76
2022/08/25 01:29:48;;;;;;;;;;;;;;;;;;5054434;28;19964;-76
2022/08/25 01:32:13;;;;;;;;;;;;;;;;;;5037977;28;19920;-76
2022/08/25 01:34:40;;;;;;;;;;;;;;;;;;5072206;28;19912;-77
2022/08/25 01:37:05;;;;;;;;;;;;;;;;;;5054486;28;19942;-77
2022/08/25 01:39:32;;;;;;;;;;;;;;;;;;5037773;28;19916;-77
2022/08/25 01:41:58;;;;;;;;;;;;;;;;;;5054513;28;19999;-77
2022/08/25 01:44:35;;;;;;;;;;;;;;;;;;5071926;28;19967;-77
2022/08/25 01:47:11;;;;;;;;;;;;;;;;;;5072154;28;19912;-76
2022/08/25 01:49:37;;;;;;;;;;;;;;;;;;5071933;28;20295;-76
2022/08/25 01:52:02;;;;;;;;;;;;;;;;;;5054015;28;19909;-77
2022/08/25 01:54:28;;;;;;;;;;;;;;;;;;5021238;28;20011;-76
2022/08/25 01:56:54;;;;;;;;;;;;;;;;;;5054054;28;19913;-76
2022/08/25 01:59:19;;;;;;;;;;;;;;;;;;5053891;28;19931;-77
2022/08/25 02:01:51;;;;;;;;;;;;;;;;;;5072102;28;19917;-77
2022/08/25 02:04:17;;;;;;;;;;;;;;;;;;5037530;28;20403;-77
2022/08/25 02:06:42;;;;;;;;;;;;;;;;;;5054466;28;19918;-74
2022/08/25 02:09:08;;;;;;;;;;;;;;;;;;5054027;28;20333;-75
2022/08/25 02:11:34;;;;;;;;;;;;;;;;;;5053843;28;20279;-78
2022/08/25 02:13:59;;;;;;;;;;;;;;;;;;5037040;28;20272;-74
2022/08/25 02:16:27;;;;;;;;;;;;;;;;;;5053871;28;19920;-76
2022/08/25 02:18:52;;;;;;;;;;;;;;;;;;5053715;28;19917;-76
2022/08/25 02:21:18;;;;;;;;;;;;;;;;;;5053957;28;19912;-77
2022/08/25 02:23:44;;;;;;;;;;;;;;;;;;5037149;28;19965;-77
2022/08/25 02:26:09;;;;;;;;;;;;;;;;;;5071782;28;20087;-76
2022/08/25 02:28:36;;;;;;;;;;;;;;;;;;5053505;28;19943;-76
2022/08/25 02:31:01;;;;;;;;;;;;;;;;;;5037085;28;19912;-76
2022/08/25 02:33:27;;;;;;;;;;;;;;;;;;5071358;28;20363;-77
2022/08/25 02:35:53;;;;;;;;;;;;;;;;;;5071530;28;19923;-77
2022/08/25 02:38:18;;;;;;;;;;;;;;;;;;5053586;28;20295;-76
2022/08/25 02:40:44;;;;;;;;;;;;;;;;;;5037266;28;20276;-76
2022/08/25 02:43:09;;;;;;;;;;;;;;;;;;5053681;28;19913;-76
2022/08/25 02:45:35;;;;;;;;;;;;;;;;;;5053754;28;20394;-76
2022/08/25 02:48:01;;;;;;;;;;;;;;;;;;5037053;28;20419;-75
2022/08/25 02:50:27;;;;;;;;;;;;;;;;;;5053658;28;20235;-76
2022/08/25 02:52:55;;;;;;;;;;;;;;;;;;5037019;28;20360;-77
2022/08/25 02:55:20;;;;;;;;;;;;;;;;;;5055514;28;19966;-76
2022/08/25 02:57:47;;;;;;;;;;;;;;;;;;5074694;28;19920;-76
2022/08/25 03:00:12;;;;;;;;;;;;;;;;;;5057156;28;20401;-75
2022/08/25 03:02:37;;;;;;;;;;;;;;;;;;5074797;28;19913;-76
2022/08/25 03:05:03;;;;;;;;;;;;;;;;;;5057341;28;19912;-76
2022/08/25 03:07:28;;;;;;;;;;;;;;;;;;5040428;28;19999;-76
2022/08/25 03:09:54;;;;;;;;;;;;;;;;;;5074708;28;19912;-76
2022/08/25 03:12:21;;;;;;;;;;;;;;;;;;5024005;28;20329;-77
2022/08/25 03:14:47;;;;;;;;;;;;;;;;;;5040398;28;19917;-76
2022/08/25 03:17:12;;;;;;;;;;;;;;;;;;5056666;28;19912;-76
2022/08/25 03:19:38;;;;;;;;;;;;;;;;;;5040119;28;19928;-76
2022/08/25 03:22:03;;;;;;;;;;;;;;;;;;5056870;28;19940;-76
2022/08/25 03:24:29;;;;;;;;;;;;;;;;;;5074488;28;20367;-76
2022/08/25 03:26:57;;;;;;;;;;;;;;;;;;5074296;28;19982;-76
2022/08/25 03:29:23;;;;;;;;;;;;;;;;;;5056569;28;19919;-76
2022/08/25 03:31:51;;;;;;;;;;;;;;;;;;5074494;28;19958;-76
2022/08/25 03:34:16;;;;;;;;;;;;;;;;;;5074243;28;19960;-77
2022/08/25 03:36:45;;;;;;;;;;;;;;;;;;5040131;28;19912;-75
2022/08/25 03:39:11;;;;;;;;;;;;;;;;;;5039837;28;19916;-77
2022/08/25 03:41:36;;;;;;;;;;;;;;;;;;5056220;28;19923;-76
2022/08/25 03:44:02;;;;;;;;;;;;;;;;;;5056174;28;19908;-76
2022/08/25 03:46:28;;;;;;;;;;;;;;;;;;5074208;28;19954;-76
2022/08/25 03:48:56;;;;;;;;;;;;;;;;;;5073975;28;19913;-76
2022/08/25 03:51:22;;;;;;;;;;;;;;;;;;5056245;28;19947;-77
2022/08/25 03:53:48;;;;;;;;;;;;;;;;;;5073770;28;19919;-75
2022/08/25 03:56:13;;;;;;;;;;;;;;;;;;5055788;28;19959;-75
2022/08/25 03:58:39;;;;;;;;;;;;;;;;;;5087149;22;19931;-77
2022/08/25 04:01:04;;;;;;;;;;;;;;;;;;5076258;28;19916;-76
2022/08/25 04:03:30;;;;;;;;;;;;;;;;;;5075823;28;19939;-76
2022/08/25 04:05:55;;;;;;;;;;;;;;;;;;5093788;28;20271;-76
2022/08/25 04:08:21;;;;;;;;;;;;;;;;;;5093944;28;19935;-76
2022/08/25 04:10:47;;;;;;;;;;;;;;;;;;5093927;28;20362;-76
2022/08/25 04:13:12;;;;;;;;;;;;;;;;;;5093886;28;20018;-76
2022/08/25 04:15:38;;;;;;;;;;;;;;;;;;5094060;28;19958;-76
2022/08/25 04:18:03;;;;;;;;;;;;;;;;;;5093785;28;19916;-77
2022/08/25 04:20:29;;;;;;;;;;;;;;;;;;5075814;28;19951;-75
2022/08/25 04:22:54;;;;;;;;;;;;;;;;;;5093578;28;19919;-76
2022/08/25 04:25:20;;;;;;;;;;;;;;;;;;5093562;28;20138;-76
2022/08/25 04:27:45;;;;;;;;;;;;;;;;;;5093850;28;20383;-77
2022/08/25 04:30:10;;;;;;;;;;;;;;;;;;5093427;28;19919;-75
2022/08/25 04:32:36;;;;;;;;;;;;;;;;;;5093351;28;19912;-77
2022/08/25 04:35:01;;;;;;;;;;;;;;;;;;5093586;28;20398;-75
2022/08/25 04:37:27;;;;;;;;;;;;;;;;;;5093617;28;20439;-76
2022/08/25 04:39:52;;;;;;;;;;;;;;;;;;5093209;28;19947;-75
2022/08/25 04:42:18;;;;;;;;;;;;;;;;;;5075213;28;19919;-76
2022/08/25 04:44:43;;;;;;;;;;;;;;;;;;5075219;28;19961;-76
2022/08/25 04:47:09;;;;;;;;;;;;;;;;;;5093257;28;20003;-76
2022/08/25 04:49:34;;;;;;;;;;;;;;;;;;5093213;28;19938;-76
2022/08/25 04:52:00;;;;;;;;;;;;;;;;;;5093559;28;19930;-77
2022/08/25 04:54:26;;;;;;;;;;;;;;;;;;5092858;28;20012;-76
2022/08/25 04:56:52;;;;;;;;;;;;;;;;;;5074794;28;19912;-77
2022/08/25 04:59:17;;;;;;;;;;;;;;;;;;5074535;28;19938;-76
2022/08/25 05:01:45;;;;;;;;;;;;;;;;;;5092843;28;19962;-77
2022/08/25 05:04:10;;;;;;;;;;;;;;;;;;5092618;28;19923;-75
2022/08/25 05:06:36;;;;;;;;;;;;;;;;;;5092743;28;19915;-76
2022/08/25 05:09:02;;;;;;;;;;;;;;;;;;5092847;28;20348;-77
2022/08/25 05:11:27;;;;;;;;;;;;;;;;;;5092618;28;19912;-76
2022/08/25 05:13:52;;;;;;;;;;;;;;;;;;5074069;28;20045;-77
2022/08/25 05:16:18;;;;;;;;;;;;;;;;;;5092732;28;19946;-76
2022/08/25 05:18:43;;;;;;;;;;;;;;;;;;5074089;28;19920;-75
2022/08/25 05:21:09;;;;;;;;;;;;;;;;;;5074511;28;20008;-78
2022/08/25 05:23:35;;;;;;;;;;;;;;;;;;5092306;28;19912;-77
2022/08/25 05:26:00;;;;;;;;;;;;;;;;;;5092324;28;20337;-76
2022/08/25 05:28:25;;;;;;;;;;;;;;;;;;5092521;28;19912;-76
2022/08/25 05:30:51;;;;;;;;;;;;;;;;;;5074193;28;19912;-75
2022/08/25 05:33:17;;;;;;;;;;;;;;;;;;5092245;28;20351;-75
2022/08/25 05:35:42;;;;;;;;;;;;;;;;;;5092803;28;20421;-76
2022/08/25 05:38:09;;;;;;;;;;;;;;;;;;5092250;28;19916;-77
2022/08/25 05:40:34;;;;;;;;;;;;;;;;;;5074543;28;19923;-76
2022/08/25 05:42:59;;;;;;;;;;;;;;;;;;5092111;28;19916;-75
2022/08/25 05:45:25;;;;;;;;;;;;;;;;;;5092288;28;19912;-77
2022/08/25 05:47:50;;;;;;;;;;;;;;;;;;5074263;28;20011;-75
2022/08/25 05:50:15;;;;;;;;;;;;;;;;;;5073919;28;19939;-74
2022/08/25 05:52:41;;;;;;;;;;;;;;;;;;5092163;28;19912;-76
2022/08/25 05:55:06;;;;;;;;;;;;;;;;;;5074501;28;19916;-75
2022/08/25 05:57:32;;;;;;;;;;;;;;;;;;5092820;28;19912;-78
2022/08/25 05:59:57;;;;;;;;;;;;;;;;;;5096697;28;19991;-76
2022/08/25 06:02:45;;;;;;;;;;;;;;;;;;5094534;28;19912;-77
2022/08/25 06:05:08;;;;;;;;;;;;;;;;;;5095087;28;19938;-76
2022/08/25 06:07:35;;;;;;;;;;;;;;;;;;5075991;28;19908;-74
2022/08/25 06:10:00;;;;;;;;;;;;;;;;;;5092433;28;19922;-76
2022/08/25 06:12:25;;;;;;;;;;;;;;;;;;5092544;28;19916;-77
2022/08/25 06:14:51;;;;;;;;;;;;;;;;;;5093110;28;20395;-76
2022/08/25 06:17:16;;;;;;;;;;;;;;;;;;5058473;28;19916;-76
2022/08/25 06:19:42;;;;;;;;;;;;;;;;;;5093345;28;19935;-75
2022/08/25 06:22:07;;;;;;;;;;;;;;;;;;5073997;28;20352;-78
2022/08/25 06:24:32;;;;;;;;;;;;;;;;;;5091733;28;20303;-76
2022/08/25 06:26:58;;;;;;;;;;;;;;;;;;5074166;28;20391;-76
2022/08/25 06:29:23;;;;;;;;;;;;;;;;;;5092200;28;19912;-75
2022/08/25 06:31:48;;;;;;;;;;;;;;;;;;5061034;28;19999;-76
2022/08/25 06:34:14;;;;;;;;;;;;;;;;;;5095510;28;20484;-75
2022/08/25 06:36:39;;;;;;;;;;;;;;;;;;5077399;28;20084;-76
2022/08/25 06:39:05;;;;;;;;;;;;;;;;;;5095505;28;20006;-77
2022/08/25 06:41:30;;;;;;;;;;;;;;;;;;5095679;28;19916;-76
2022/08/25 06:43:55;;;;;;;;;;;;;;;;;;5095768;28;19912;-76
2022/08/25 06:46:21;;;;;;;;;;;;;;;;;;5095374;28;19926;-76
2022/08/25 06:48:46;;;;;;;;;;;;;;;;;;5095335;28;20007;-77
2022/08/25 06:51:11;;;;;;;;;;;;;;;;;;5095137;28;20424;-76
2022/08/25 06:53:37;;;;;;;;;;;;;;;;;;5095204;28;19918;-75
2022/08/25 06:56:02;;;;;;;;;;;;;;;;;;5095224;28;19912;-75
2022/08/25 06:58:28;;;;;;;;;;;;;;;;;;5094915;28;20298;-76
2022/08/25 07:00:53;;;;;;;;;;;;;;;;;;5077131;28;20311;-75
2022/08/25 07:03:18;;;;;;;;;;;;;;;;;;5076762;28;20283;-76
2022/08/25 07:05:44;;;;;;;;;;;;;;;;;;5094721;28;19912;-77
2022/08/25 07:08:10;;;;;;;;;;;;;;;;;;5076714;28;19913;-75
2022/08/25 07:10:36;;;;;;;;;;;;;;;;;;5094996;28;20042;-77
2022/08/25 07:13:01;;;;;;;;;;;;;;;;;;5076541;28;20408;-77
2022/08/25 07:15:26;;;;;;;;;;;;;;;;;;5094781;28;19926;-77
2022/08/25 07:17:52;;;;;;;;;;;;;;;;;;5076660;28;19912;-75
2022/08/25 07:20:18;;;;;;;;;;;;;;;;;;5059283;28;19916;-76
2022/08/25 07:22:43;;;;;;;;;;;;;;;;;;5094611;28;19916;-76
2022/08/25 07:25:10;;;;;;;;;;;;;;;;;;5076818;28;19916;-75
2022/08/25 07:27:36;;;;;;;;;;;;;;;;;;5094615;28;19912;-77
2022/08/25 07:30:01;;;;;;;;;;;;;;;;;;5076331;28;19919;-76
2022/08/25 07:32:26;;;;;;;;;;;;;;;;;;5076440;28;19977;-77
2022/08/25 07:37:36;;;;;;;;;;;;;;;;;;5095567;28;19912;-76
2022/08/25 07:40:01;;;;;;;;;;;;;;;;;;5076256;28;20016;-77
2022/08/25 07:42:27;;;;;;;;;;;;;;;;;;5094314;28;19909;-77
2022/08/25 07:44:52;;;;;;;;;;;;;;;;;;5094107;28;19912;-76
2022/08/25 07:47:18;;;;;;;;;;;;;;;;;;5094167;28;20325;-75
2022/08/25 07:49:43;;;;;;;;;;;;;;;;;;5076020;28;19919;-76
2022/08/25 07:52:08;;;;;;;;;;;;;;;;;;5094215;28;19912;-77
2022/08/25 07:54:34;;;;;;;;;;;;;;;;;;5075894;28;20371;-76
2022/08/25 07:56:59;;;;;;;;;;;;;;;;;;5059662;28;19916;-77
2022/08/25 07:59:25;;;;;;;;;;;;;;;;;;5059198;28;19991;-76
2022/08/25 08:01:50;;;;;;;;;;;;;;;;;;5094184;28;19999;-77
2022/08/25 08:04:15;;;;;;;;;;;;;;;;;;5094067;28;19916;-77
2022/08/25 08:06:41;;;;;;;;;;;;;;;;;;5059446;28;19961;-76
2022/08/25 08:09:06;;;;;;;;;;;;;;;;;;5093780;28;19912;-76
2022/08/25 08:11:33;;;;;;;;;;;;;;;;;;5093804;28;20323;-77
2022/08/25 08:13:58;;;;;;;;;;;;;;;;;;5093877;28;19915;-77
2022/08/25 08:16:24;;;;;;;;;;;;;;;;;;5042380;28;19912;-76
2022/08/25 08:18:49;;;;;;;;;;;;;;;;;;5075611;28;19916;-77
2022/08/25 08:21:14;;;;;;;;;;;;;;;;;;5093788;28;20391;-76
2022/08/25 08:23:40;;;;;;;;;;;;;;;;;;5093229;28;19916;-77
2022/08/25 08:26:05;;;;;;;;;;;;;;;;;;5075449;28;20366;-77
2022/08/25 08:28:31;;;;;;;;;;;;;;;;;;5093744;28;20326;-77
2022/08/25 08:30:56;;;;;;;;;;;;;;;;;;5075506;28;20291;-76
2022/08/25 08:33:22;;;;;;;;;;;;;;;;;;5075049;28;19923;-76
2022/08/25 08:35:48;;;;;;;;;;;;;;;;;;5093541;28;19955;-77
2022/08/25 08:38:13;;;;;;;;;;;;;;;;;;5093222;28;19993;-75
2022/08/25 08:40:38;;;;;;;;;;;;;;;;;;5093368;28;19912;-77
2022/08/25 08:43:05;;;;;;;;;;;;;;;;;;5092910;28;19912;-75
2022/08/25 08:45:31;;;;;;;;;;;;;;;;;;5093180;28;20425;-77
2022/08/25 08:47:56;;;;;;;;;;;;;;;;;;5093052;28;19916;-77
2022/08/25 08:50:21;;;;;;;;;;;;;;;;;;5075025;28;19912;-77
2022/08/25 08:52:47;;;;;;;;;;;;;;;;;;5073958;28;20011;-76
2022/08/25 08:55:12;;;;;;;;;;;;;;;;;;5093158;28;19946;-76
2022/08/25 08:57:38;;;;;;;;;;;;;;;;;;5075352;28;20351;-77
2022/08/25 09:00:04;;;;;;;;;;;;;;;;;;5093001;28;20298;-75
2022/08/25 09:02:29;;;;;;;;;;;;;;;;;;5075410;28;20011;-76
2022/08/25 09:04:54;;;;;;;;;;;;;;;;;;5075113;28;19967;-76
2022/08/25 09:07:20;;;;;;;;;;;;;;;;;;5059225;28;19923;-76
2022/08/25 09:09:45;;;;;;;;;;;;;;;;;;5076533;28;19921;-75
2022/08/25 09:12:11;;;;;;;;;;;;;;;;;;5076309;28;19912;-76
2022/08/25 09:14:37;;;;;;;;;;;;;;;;;;5095182;28;19918;-74
2022/08/25 09:17:04;;;;;;;;;;;;;;;;;;5095721;28;20416;-75
2022/08/25 09:19:30;;;;;;;;;;;;;;;;;;5061436;28;19920;-75
2022/08/25 09:21:55;;;;;;;;;;;;;;;;;;5076228;28;19977;-76
2022/08/25 09:24:21;;;;;;;;;;;;;;;;;;5094652;28;19918;-75
2022/08/25 09:26:46;;;;;;;;;;;;;;;;;;5076954;28;19938;-75
2022/08/25 09:29:12;;;;;;;;;;;;;;;;;;5095110;28;19912;-77
2022/08/25 09:31:37;;;;;;;;;;;;;;;;;;5076923;28;20267;-77
2022/08/25 09:34:03;;;;;;;;;;;;;;;;;;5080556;28;19971;-75
2022/08/25 09:36:28;;;;;;;;;;;;;;;;;;5080212;28;19908;-79
2022/08/25 09:38:53;;;;;;;;;;;;;;;;;;5078870;28;19916;-75
2022/08/25 09:41:19;;;;;;;;;;;;;;;;;;5094013;28;19912;-76
2022/08/25 09:43:44;;;;;;;;;;;;;;;;;;5092680;28;19913;-75
2022/08/25 09:46:09;;;;;;;;;;;;;;;;;;5092474;28;19977;-77
2022/08/25 09:48:36;;;;;;;;;;;;;;;;;;5074640;28;19927;-77
2022/08/25 09:51:02;;;;;;;;;;;;;;;;;;5074197;28;19912;-76
2022/08/25 09:53:27;;;;;;;;;;;;;;;;;;5092063;28;19913;-75
2022/08/25 09:55:54;;;;;;;;;;;;;;;;;;5092245;28;20267;-76
2022/08/25 09:58:19;;;;;;;;;;;;;;;;;;5091835;28;19916;-75
2022/08/25 10:00:45;;;;;;;;;;;;;;;;;;5057328;28;19916;-76
2022/08/25 10:03:11;;;;;;;;;;;;;;;;;;5091955;28;19954;-76
2022/08/25 10:05:36;;;;;;;;;;;;;;;;;;5078321;28;19911;-76
2022/08/25 10:08:08;;;;;;;;;;;;;;;;;;5096285;28;19916;-76
2022/08/25 10:10:33;;;;;;;;;;;;;;;;;;5061664;28;19916;-76
2022/08/25 10:12:59;;;;;;;;;;;;;;;;;;5095986;28;19920;-76
2022/08/25 10:15:25;;;;;;;;;;;;;;;;;;5077575;28;19956;-76
2022/08/25 10:17:51;;;;;;;;;;;;;;;;;;5077967;28;19971;-76
2022/08/25 10:20:16;;;;;;;;;;;;;;;;;;5077693;28;19916;-76
2022/08/25 10:22:42;;;;;;;;;;;;;;;;;;5095677;28;19919;-76
2022/08/25 10:25:07;;;;;;;;;;;;;;;;;;5095722;28;19908;-76
2022/08/25 10:27:33;;;;;;;;;;;;;;;;;;5077787;28;19916;-74
2022/08/25 10:29:58;;;;;;;;;;;;;;;;;;5077622;28;19915;-76
2022/08/25 10:32:23;;;;;;;;;;;;;;;;;;5061093;28;19912;-76
2022/08/25 10:34:49;;;;;;;;;;;;;;;;;;5077712;28;19951;-76
2022/08/25 10:37:14;;;;;;;;;;;;;;;;;;5078289;28;20496;-77
2022/08/25 10:39:40;;;;;;;;;;;;;;;;;;5061188;28;19920;-76
2022/08/25 10:42:05;;;;;;;;;;;;;;;;;;5078275;28;20002;-77
2022/08/25 10:47:15;;;;;;;;;;;;;;;;;;5096663;28;19912;-78
2022/08/25 10:49:41;;;;;;;;;;;;;;;;;;5097101;28;19927;-76
2022/08/25 10:52:06;;;;;;;;;;;;;;;;;;5078835;28;19908;-76
2022/08/25 10:54:32;;;;;;;;;;;;;;;;;;5077510;28;20283;-76
2022/08/25 10:56:57;;;;;;;;;;;;;;;;;;5077165;28;19912;-76
2022/08/25 10:59:23;;;;;;;;;;;;;;;;;;5060060;28;19916;-75
2022/08/25 11:01:48;;;;;;;;;;;;;;;;;;5095031;28;19926;-76
2022/08/25 11:04:14;;;;;;;;;;;;;;;;;;5094336;28;19916;-77
2022/08/25 11:06:39;;;;;;;;;;;;;;;;;;5094639;28;20014;-75
2022/08/25 11:09:05;;;;;;;;;;;;;;;;;;5076378;28;19996;-76
2022/08/25 11:11:30;;;;;;;;;;;;;;;;;;5076632;28;19930;-76
2022/08/25 11:13:55;;;;;;;;;;;;;;;;;;5076459;28;20329;-75
2022/08/25 11:16:21;;;;;;;;;;;;;;;;;;5076168;28;19927;-75
2022/08/25 11:18:46;;;;;;;;;;;;;;;;;;5076865;28;20438;-77
2022/08/25 11:21:12;;;;;;;;;;;;;;;;;;5077086;28;19912;-75
2022/08/25 11:23:37;;;;;;;;;;;;;;;;;;5094863;28;20267;-75
2022/08/25 11:26:04;;;;;;;;;;;;;;;;;;5077068;28;20385;-75
2022/08/25 11:28:29;;;;;;;;;;;;;;;;;;5076990;28;19919;-75
2022/08/25 11:30:55;;;;;;;;;;;;;;;;;;5095093;28;19912;-75
2022/08/25 11:33:20;;;;;;;;;;;;;;;;;;5094673;28;19998;-77
2022/08/25 11:35:46;;;;;;;;;;;;;;;;;;5095099;28;19912;-76
2022/08/25 11:38:11;;;;;;;;;;;;;;;;;;5094541;28;19912;-75
2022/08/25 11:40:37;;;;;;;;;;;;;;;;;;5095250;28;19981;-76
2022/08/25 11:43:02;;;;;;;;;;;;;;;;;;5094313;28;20534;-76
2022/08/25 11:45:28;;;;;;;;;;;;;;;;;;5043553;28;19919;-75
2022/08/25 11:47:53;;;;;;;;;;;;;;;;;;5094417;28;20235;-78
2022/08/25 11:50:18;;;;;;;;;;;;;;;;;;5059865;28;19948;-76
2022/08/25 11:52:45;;;;;;;;;;;;;;;;;;5059477;28;20375;-74
2022/08/25 11:55:11;;;;;;;;;;;;;;;;;;5094645;28;19923;-75
2022/08/25 11:57:36;;;;;;;;;;;;;;;;;;5076323;28;19912;-75
2022/08/25 12:00:02;;;;;;;;;;;;;;;;;;5076026;28;19939;-76
2022/08/25 12:02:27;;;;;;;;;;;;;;;;;;5094201;28;19912;-77
2022/08/25 12:04:54;;;;;;;;;;;;;;;;;;5076224;28;19912;-76
2022/08/25 12:07:19;;;;;;;;;;;;;;;;;;5059620;28;20434;-76
2022/08/25 12:09:44;;;;;;;;;;;;;;;;;;5094252;28;20011;-75
2022/08/25 12:12:10;;;;;;;;;;;;;;;;;;5094141;28;20011;-75
2022/08/25 12:14:35;;;;;;;;;;;;;;;;;;5078360;28;19908;-76
2022/08/25 12:17:01;;;;;;;;;;;;;;;;;;5095218;28;19919;-77
2022/08/25 12:19:26;;;;;;;;;;;;;;;;;;5075782;28;19920;-75
2022/08/25 12:21:51;;;;;;;;;;;;;;;;;;5108821;28;20118;-74
2022/08/25 12:24:17;;;;;;;;;;;;;;;;;;5110510;28;19927;-76
2022/08/25 12:26:42;;;;;;;;;;;;;;;;;;5090658;28;19920;-75
2022/08/25 12:29:08;;;;;;;;;;;;;;;;;;5106919;28;19912;-75
2022/08/25 12:31:33;;;;;;;;;;;;;;;;;;5105188;28;20263;-76
2022/08/25 12:33:59;;;;;;;;;;;;;;;;;;5103399;28;20383;-74
2022/08/25 12:36:25;;;;;;;;;;;;;;;;;;5093763;28;19916;-75
2022/08/25 12:38:51;;;;;;;;;;;;;;;;;;5075195;28;19942;-76
2022/08/25 12:41:17;;;;;;;;;;;;;;;;;;5058444;28;19995;-76
2022/08/25 12:43:43;;;;;;;;;;;;;;;;;;5092890;28;19947;-75
2022/08/25 12:46:08;;;;;;;;;;;;;;;;;;5093353;28;20385;-74
2022/08/25 12:48:34;;;;;;;;;;;;;;;;;;5058206;28;19978;-75
2022/08/25 12:50:59;;;;;;;;;;;;;;;;;;5093063;28;20404;-76
2022/08/25 12:53:25;;;;;;;;;;;;;;;;;;5041316;28;19912;-75
2022/08/25 12:55:50;;;;;;;;;;;;;;;;;;5058141;28;19916;-74
2022/08/25 12:58:15;;;;;;;;;;;;;;;;;;5057529;28;20306;-75
2022/08/25 13:00:41;;;;;;;;;;;;;;;;;;5093259;28;19946;-75
2022/08/25 13:03:06;;;;;;;;;;;;;;;;;;5092810;28;19919;-75
2022/08/25 13:05:32;;;;;;;;;;;;;;;;;;5074752;28;19991;-76
2022/08/25 13:07:57;;;;;;;;;;;;;;;;;;5074739;28;19920;-76
2022/08/25 13:10:23;;;;;;;;;;;;;;;;;;5092704;28;19912;-76
2022/08/25 13:12:48;;;;;;;;;;;;;;;;;;5092923;28;19916;-76
2022/08/25 13:15:14;;;;;;;;;;;;;;;;;;5092979;28;19912;-75
2022/08/25 13:17:39;;;;;;;;;;;;;;;;;;5058589;28;19919;-75
2022/08/25 13:20:05;;;;;;;;;;;;;;;;;;5074791;28;20333;-76
2022/08/25 13:22:30;;;;;;;;;;;;;;;;;;5074160;28;19916;-76
2022/08/25 13:24:56;;;;;;;;;;;;;;;;;;5092226;28;19912;-74
2022/08/25 13:27:21;;;;;;;;;;;;;;;;;;5092484;28;19954;-77
2022/08/25 13:29:47;;;;;;;;;;;;;;;;;;5092241;28;19912;-77
2022/08/25 13:32:12;;;;;;;;;;;;;;;;;;5057076;28;20322;-76
2022/08/25 13:34:37;;;;;;;;;;;;;;;;;;5091869;28;19918;-76
2022/08/25 13:39:47;;;;;;;;;;;;;;;;;;5073538;28;20428;-76
2022/08/25 13:42:13;;;;;;;;;;;;;;;;;;5057529;28;19920;-76
2022/08/25 13:44:38;;;;;;;;;;;;;;;;;;5074105;28;20318;-76
2022/08/25 13:47:04;;;;;;;;;;;;;;;;;;5073874;28;19908;-76
2022/08/25 13:49:29;;;;;;;;;;;;;;;;;;5091954;28;20287;-76
2022/08/25 13:51:54;;;;;;;;;;;;;;;;;;5074429;28;19916;-75
2022/08/25 13:54:20;;;;;;;;;;;;;;;;;;5092045;28;19916;-77
2022/08/25 13:56:45;;;;;;;;;;;;;;;;;;5057399;28;19912;-76
2022/08/25 13:59:10;;;;;;;;;;;;;;;;;;5073947;28;19927;-77
2022/08/25 14:01:36;;;;;;;;;;;;;;;;;;5074137;28;19947;-75
2022/08/25 14:04:01;;;;;;;;;;;;;;;;;;5092126;28;19935;-77
2022/08/25 14:06:27;;;;;;;;;;;;;;;;;;5057040;28;19912;-75
2022/08/25 14:08:53;;;;;;;;;;;;;;;;;;5073859;28;20306;-75
2022/08/25 14:11:18;;;;;;;;;;;;;;;;;;5092404;28;19916;-76
2022/08/25 14:13:44;;;;;;;;;;;;;;;;;;5092158;28;19912;-77
2022/08/25 14:16:09;;;;;;;;;;;;;;;;;;5073436;28;19916;-76
2022/08/25 14:18:35;;;;;;;;;;;;;;;;;;5056689;28;19916;-75
2022/08/25 14:21:00;;;;;;;;;;;;;;;;;;5073498;28;19951;-77
2022/08/25 14:23:26;;;;;;;;;;;;;;;;;;5073718;28;19920;-77
2022/08/25 14:25:51;;;;;;;;;;;;;;;;;;5074006;28;19920;-76
2022/08/25 14:28:17;;;;;;;;;;;;;;;;;;5092656;28;19947;-76
2022/08/25 14:30:42;;;;;;;;;;;;;;;;;;5062151;28;19912;-76
2022/08/25 14:33:08;;;;;;;;;;;;;;;;;;5064436;28;20263;-77
2022/08/25 14:35:43;;;;;;;;;;;;;;;;;;5099775;28;20287;-75
2022/08/25 14:38:09;;;;;;;;;;;;;;;;;;5067408;28;19979;-75
2022/08/25 14:40:34;;;;;;;;;;;;;;;;;;5102068;28;20007;-76
2022/08/25 14:43:00;;;;;;;;;;;;;;;;;;5083025;28;20011;-75
2022/08/25 14:45:25;;;;;;;;;;;;;;;;;;5102488;28;19912;-76
2022/08/25 14:47:51;;;;;;;;;;;;;;;;;;5079680;28;19913;-74
2022/08/25 14:50:16;;;;;;;;;;;;;;;;;;5094090;28;19912;-77
2022/08/25 14:52:42;;;;;;;;;;;;;;;;;;5095133;28;20004;-76
2022/08/25 14:55:07;;;;;;;;;;;;;;;;;;5095331;28;19912;-75
2022/08/25 14:57:32;;;;;;;;;;;;;;;;;;5077403;28;19919;-75
2022/08/25 14:59:59;;;;;;;;;;;;;;;;;;5096702;28;19916;-76
2022/08/25 15:02:24;;;;;;;;;;;;;;;;;;5096961;28;19951;-75
2022/08/25 15:04:50;;;;;;;;;;;;;;;;;;5097134;28;19989;-75
2022/08/25 15:09:59;;;;;;;;;;;;;;;;;;5096591;28;19913;-77
2022/08/25 15:12:25;;;;;;;;;;;;;;;;;;5079365;28;19923;-75
2022/08/25 15:14:50;;;;;;;;;;;;;;;;;;5062849;28;19916;-76
2022/08/25 15:17:15;;;;;;;;;;;;;;;;;;5079871;28;19912;-75
2022/08/25 15:19:41;;;;;;;;;;;;;;;;;;5097435;28;19923;-76
2022/08/25 15:22:06;;;;;;;;;;;;;;;;;;5078475;28;20304;-76
2022/08/25 15:24:31;;;;;;;;;;;;;;;;;;5081835;28;19912;-77
2022/08/25 15:26:57;;;;;;;;;;;;;;;;;;5085076;28;20058;-74
2022/08/25 15:29:23;;;;;;;;;;;;;;;;;;5101306;28;19912;-75
2022/08/25 15:31:48;;;;;;;;;;;;;;;;;;5101173;28;19912;-75
2022/08/25 15:34:14;;;;;;;;;;;;;;;;;;5078633;28;20379;-75
2022/08/25 15:36:39;;;;;;;;;;;;;;;;;;5094418;28;19981;-75
2022/08/25 15:39:05;;;;;;;;;;;;;;;;;;5076444;28;19916;-76
2022/08/25 15:41:30;;;;;;;;;;;;;;;;;;5094228;28;20003;-75
2022/08/25 15:43:58;;;;;;;;;;;;;;;;;;5075959;28;20368;-75
2022/08/25 15:46:23;;;;;;;;;;;;;;;;;;5075994;28;19920;-75
2022/08/25 15:48:49;;;;;;;;;;;;;;;;;;5094137;28;19912;-75
2022/08/25 15:51:14;;;;;;;;;;;;;;;;;;5059788;28;19919;-76
2022/08/25 15:53:40;;;;;;;;;;;;;;;;;;5042826;28;20355;-75
2022/08/25 15:56:05;;;;;;;;;;;;;;;;;;5076330;28;19914;-75
2022/08/25 16:01:28;;;;;;;;;;;;;;;;;;4992357;28;19929;-74
2022/08/25 16:03:53;;;;;;;;;;;;;;;;;;4994136;28;20338;-76
2022/08/25 16:06:19;;;;;;;;;;;;;;;;;;4977525;28;19914;-76
2022/08/25 16:08:44;;;;;;;;;;;;;;;;;;4976849;28;20331;-76
2022/08/25 16:11:09;;;;;;;;;;;;;;;;;;4993137;28;19921;-76
2022/08/25 16:13:35;;;;;;;;;;;;;;;;;;4976821;28;19914;-75
2022/08/25 16:16:01;;;;;;;;;;;;;;;;;;4993027;28;19997;-75
2022/08/25 16:18:26;;;;;;;;;;;;;;;;;;4976703;28;20373;-75
2022/08/25 16:20:51;;;;;;;;;;;;;;;;;;4976731;28;19921;-76
2022/08/25 16:23:17;;;;;;;;;;;;;;;;;;4976550;28;20329;-75
2022/08/25 16:25:42;;;;;;;;;;;;;;;;;;4976932;28;19913;-75
2022/08/25 16:28:08;;;;;;;;;;;;;;;;;;4976752;28;19969;-74
2022/08/25 16:30:33;;;;;;;;;;;;;;;;;;4993857;28;19924;-74
2022/08/25 16:33:08;;;;;;;;;;;;;;;;;;4976376;28;20396;-74
2022/08/25 16:35:54;;;;;;;;;;;;;;;;;;4976909;28;19914;-76
2022/08/25 16:38:19;;;;;;;;;;;;;;;;;;4993758;28;19920;-75
2022/08/25 16:40:45;;;;;;;;;;;;;;;;;;4993689;28;19992;-75
2022/08/25 16:43:10;;;;;;;;;;;;;;;;;;4993553;28;20308;-74
2022/08/25 16:45:35;;;;;;;;;;;;;;;;;;4993748;28;19914;-75
2022/08/25 16:48:01;;;;;;;;;;;;;;;;;;4993917;28;19936;-76
2022/08/25 16:50:29;;;;;;;;;;;;;;;;;;4976523;28;20381;-74